Time;durP1;ratioP1;P1;durP2;ratioP2;P2;SDS_P1;SDS_P2;PMS_P1;PMS_P2;Temp;Humidity;BMP_temperature;BMP_pressure;BME280_temperature;BME280_humidity;BME280_pressure;Samples;Min_cycle;Max_cycle;Signal;HPM_P1;HPM_P2
2023/02/19 00:01:44;;;;;;;15.95;7.80;;;;;;;-4.10;68.10;97939.06;5070154;28;20119;-36
2023/02/19 00:04:17;;;;;;;15.27;7.32;;;;;;;-4.09;67.81;97943.31;5078358;28;20510;-37
2023/02/19 00:06:44;;;;;;;14.45;6.78;;;;;;;-3.98;68.21;97939.00;5066357;28;20053;-37
2023/02/19 00:09:11;;;;;;;16.45;7.65;;;;;;;-4.04;68.12;97936.50;5053931;28;20153;-35
2023/02/19 00:11:37;;;;;;;17.30;7.03;;;;;;;-4.12;68.08;97909.47;5066240;28;20123;-37
2023/02/19 00:14:03;;;;;;;18.60;7.50;;;;;;;-3.92;68.17;97933.88;5082151;28;20142;-35
2023/02/19 00:16:31;;;;;;;14.25;7.32;;;;;;;-3.93;68.20;97924.63;5068103;28;20039;-35
2023/02/19 00:18:57;;;;;;;17.17;7.20;;;;;;;-4.14;68.05;97888.34;5072134;28;20048;-35
2023/02/19 00:21:24;;;;;;;17.38;7.00;;;;;;;-4.12;67.64;97896.78;5075284;28;20060;-35
2023/02/19 00:24:03;;;;;;;18.25;7.63;;;;;;;-4.09;68.49;97917.94;5070996;28;20042;-36
2023/02/19 00:26:29;;;;;;;18.30;7.72;;;;;;;-4.09;68.39;97907.78;5060046;28;20063;-35
2023/02/19 00:28:56;;;;;;;18.05;8.43;;;;;;;-3.92;68.40;97918.66;5074889;28;20048;-35
2023/02/19 00:31:25;;;;;;;18.02;7.78;;;;;;;-3.88;68.27;97922.03;5083676;28;20135;-34
2023/02/19 00:33:53;;;;;;;20.40;8.02;;;;;;;-4.01;68.13;97918.72;5119037;27;20071;-36
2023/02/19 00:36:20;;;;;;;17.73;8.27;;;;;;;-4.11;68.02;97876.47;5038442;28;20534;-36
2023/02/19 00:38:46;;;;;;;15.57;7.25;;;;;;;-4.01;68.11;97916.19;5067093;28;20047;-36
2023/02/19 00:41:19;;;;;;;15.23;6.97;;;;;;;-4.17;67.75;97912.03;5083485;28;20066;-36
2023/02/19 00:44:00;;;;;;;16.80;8.00;;;;;;;-4.28;68.91;97927.28;5083886;28;20051;-35
2023/02/19 00:46:28;;;;;;;16.05;6.95;;;;;;;-4.40;69.07;97919.75;5073097;28;20056;-37
2023/02/19 00:48:55;;;;;;;20.25;8.50;;;;;;;-4.33;69.29;97907.88;5037330;28;20446;-35
2023/02/19 00:51:23;;;;;;;17.38;6.82;;;;;;;-4.39;68.95;97901.13;5074143;28;20067;-35
2023/02/19 00:53:49;;;;;;;18.20;7.10;;;;;;;-4.46;69.07;97899.47;5086577;28;20412;-34
2023/02/19 00:56:15;;;;;;;13.63;6.00;;;;;;;-4.31;69.40;97891.81;5102635;28;20036;-37
2023/02/19 00:58:41;;;;;;;19.50;7.90;;;;;;;-4.32;68.55;97895.19;5079499;28;20155;-35
2023/02/19 01:01:07;;;;;;;14.65;6.95;;;;;;;-4.32;68.90;97879.13;5077265;28;20048;-36
2023/02/19 01:03:34;;;;;;;17.65;8.07;;;;;;;-4.30;69.14;97877.44;5065843;28;20040;-36
2023/02/19 01:06:00;;;;;;;21.90;8.45;;;;;;;-4.19;68.93;97873.16;5072426;28;20119;-34
2023/02/19 01:08:26;;;;;;;16.52;7.28;;;;;;;-4.15;68.46;97874.81;5034879;28;20039;-33
2023/02/19 01:10:53;;;;;;;19.08;7.70;;;;;;;-4.67;67.99;97802.38;5089868;28;20460;-35
2023/02/19 01:13:19;;;;;;;15.13;6.80;;;;;;;-4.38;68.50;97863.94;5069144;28;20570;-35
2023/02/19 01:15:44;;;;;;;15.90;6.63;;;;;;;-4.49;68.67;97861.44;5100048;28;20032;-36
2023/02/19 01:18:10;;;;;;;17.88;7.53;;;;;;;-4.51;68.68;97873.31;5081225;28;20036;-36
2023/02/19 01:20:41;;;;;;;14.18;7.18;;;;;;;-4.48;69.12;97867.38;5073218;28;20047;-35
2023/02/19 01:23:08;;;;;;;18.52;7.95;;;;;;;-4.37;69.83;97863.09;5074970;28;20044;-35
2023/02/19 01:25:34;;;;;;;15.82;7.40;;;;;;;-4.35;69.55;97863.94;5067760;28;20043;-35
2023/02/19 01:27:59;;;;;;;17.65;7.72;;;;;;;-4.42;68.93;97850.44;5083217;28;20032;-36
2023/02/19 01:30:26;;;;;;;18.10;7.70;;;;;;;-4.43;68.75;97847.91;5081219;28;20581;-42
2023/02/19 01:32:51;;;;;;;17.88;6.40;;;;;;;-4.35;69.54;97858.88;5092361;28;20093;-34
2023/02/19 01:35:17;;;;;;;18.30;7.63;;;;;;;-4.38;68.96;97846.19;5077719;28;20071;-35
2023/02/19 01:37:43;;;;;;;17.63;6.88;;;;;;;-4.38;68.84;97847.03;5072036;28;20070;-36
2023/02/19 01:40:09;;;;;;;15.45;7.20;;;;;;;-4.35;69.06;97847.03;5071076;28;20155;-36
2023/02/19 01:42:35;;;;;;;16.45;7.07;;;;;;;-4.49;68.64;97817.50;5072078;28;20040;-35
2023/02/19 01:45:29;;;;;;;14.27;6.80;;;;;;;-4.38;68.48;97847.03;5083949;28;20573;-34
2023/02/19 01:48:08;;;;;;;18.55;6.18;;;;;;;-4.50;68.96;97834.41;5075432;28;20044;-35
2023/02/19 01:50:44;;;;;;;15.63;6.50;;;;;;;-4.52;68.44;97841.19;5077370;28;20040;-35
2023/02/19 01:53:12;;;;;;;16.13;7.72;;;;;;;-4.58;68.68;97833.59;5082827;28;20037;-35
2023/02/19 01:55:38;;;;;;;15.45;6.65;;;;;;;-4.54;68.89;97842.88;5073153;28;20048;-35
2023/02/19 01:58:04;;;;;;;19.00;7.75;;;;;;;-4.46;69.15;97841.16;5069013;28;20042;-35
2023/02/19 02:00:32;;;;;;;18.40;6.47;;;;;;;-4.41;69.19;97841.97;5082161;28;20052;-34
2023/02/19 02:02:58;;;;;;;18.88;7.95;;;;;;;-4.45;68.78;97842.00;5090374;28;20108;-34
2023/02/19 02:05:36;;;;;;;16.75;6.90;;;;;;;-4.44;69.07;97838.59;5069957;28;20032;-35
2023/02/19 02:10:48;;;;;;;12.55;6.20;;;;;;;-4.41;68.81;97841.97;5089613;28;20126;-35
2023/02/19 02:13:14;;;;;;;15.60;6.78;;;;;;;-4.68;68.88;97810.84;5074131;28;20039;-36
2023/02/19 02:16:07;;;;;;;14.23;6.55;;;;;;;-4.41;68.14;97841.13;5067166;28;20141;-35
2023/02/19 02:19:11;;;;;;;12.05;6.35;;;;;;;-4.46;68.40;97835.25;5080889;28;20047;-36
2023/02/19 02:21:59;;;;;;;16.25;6.53;;;;;;;-4.43;68.35;97847.91;5040089;28;20047;-35
2023/02/19 02:24:43;;;;;;;18.02;6.93;;;;;;;-4.65;68.23;97843.75;5087554;28;20055;-34
2023/02/19 02:27:26;;;;;;;13.68;6.22;;;;;;;-4.73;68.56;97841.28;5056964;28;20079;-35
2023/02/19 02:30:12;;;;;;;13.15;6.53;;;;;;;-4.72;68.70;97833.66;5056634;28;20118;-35
2023/02/19 02:33:08;;;;;;;14.90;6.30;;;;;;;-4.68;68.62;97838.72;5083778;28;20122;-35
2023/02/19 02:35:47;;;;;;;13.02;6.65;;;;;;;-4.51;69.13;97830.19;5081490;28;20557;-34
2023/02/19 02:38:15;;;;;;;11.23;5.57;;;;;;;-4.57;69.18;97840.38;5086728;28;20058;-35
2023/02/19 02:40:43;;;;;;;15.77;6.80;;;;;;;-4.58;68.94;97832.75;5078300;28;20044;-36
2023/02/19 02:43:11;;;;;;;15.70;6.87;;;;;;;-4.54;68.67;97830.19;5078897;28;20515;-35
2023/02/19 02:45:38;;;;;;;12.63;5.57;;;;;;;-4.54;69.18;97821.75;5067926;28;20530;-37
2023/02/19 02:48:44;;;;;;;15.45;6.57;;;;;;;-4.56;68.60;97826.00;5070908;28;20090;-35
2023/02/19 02:51:26;;;;;;;12.70;6.28;;;;;;;-4.48;68.29;97819.19;5085390;28;20048;-34
2023/02/19 02:57:13;;;;;;;13.68;6.15;;;;;;;-4.70;68.64;97780.41;5090923;28;20186;-35
2023/02/19 02:59:46;;;;;;;14.00;5.88;;;;;;;-4.48;69.07;97814.13;5073763;28;20040;-35
2023/02/19 03:02:19;;;;;;;14.90;6.72;;;;;;;-4.49;68.81;97814.97;5069226;28;20080;-36
2023/02/19 03:08:08;;;;;;;15.25;7.18;;;;;;;-4.59;69.11;97815.84;5080865;28;20469;-35
2023/02/19 03:10:43;;;;;;;16.60;7.10;;;;;;;-4.58;69.32;97817.56;5085861;28;20047;-35
2023/02/19 03:19:20;;;;;;;12.73;5.72;;;;;;;-4.70;69.53;97805.75;5094687;28;20040;-36
2023/02/19 03:22:11;;;;;;;12.75;5.25;;;;;;;-4.79;69.54;97809.19;5036783;28;20032;-35
2023/02/19 03:27:31;;;;;;;12.88;6.05;;;;;;;-4.99;70.08;97772.09;5055026;28;20048;-36
2023/02/19 03:30:02;;;;;;;14.55;6.03;;;;;;;-4.66;69.70;97804.06;5068936;28;20044;-36
2023/02/19 03:32:35;;;;;;;12.77;6.10;;;;;;;-4.58;70.05;97797.25;5051506;28;20041;-37
2023/02/19 03:35:15;;;;;;;14.35;5.10;;;;;;;-4.57;70.35;97796.41;5052005;28;20079;-36
2023/02/19 03:37:46;;;;;;;15.43;6.00;;;;;;;-4.59;70.19;97798.09;5068419;28;20035;-36
2023/02/19 03:40:12;;;;;;;13.48;6.25;;;;;;;-4.55;69.88;97794.72;5051863;28;20070;-36
2023/02/19 03:42:42;;;;;;;12.05;6.07;;;;;;;-4.64;69.99;97794.75;5069957;28;20487;-34
2023/02/19 03:45:28;;;;;;;15.02;6.00;;;;;;;-4.60;69.27;97789.66;5068334;28;20147;-35
2023/02/19 03:48:06;;;;;;;11.60;5.40;;;;;;;-4.58;69.71;97787.13;5053885;28;20476;-35
2023/02/19 03:50:41;;;;;;;11.40;5.05;;;;;;;-4.70;69.79;97783.78;5067918;28;20519;-36
2023/02/19 03:53:17;;;;;;;15.88;7.13;;;;;;;-4.74;69.41;97778.75;5081256;28;20070;-35
2023/02/19 03:56:04;;;;;;;7.90;3.72;;;;;;;-4.64;69.68;97792.22;5081298;28;20049;-35
2023/02/19 03:59:15;;;;;;;15.18;5.68;;;;;;;-4.74;69.62;97786.34;5077054;28;20040;-35
2023/02/19 04:02:04;;;;;;;12.32;6.07;;;;;;;-4.65;69.63;97783.78;5085900;28;20508;-36
2023/02/19 04:04:36;;;;;;;11.73;5.20;;;;;;;-4.65;69.58;97780.38;5088409;28;20098;-35
2023/02/19 04:07:03;;;;;;;11.55;5.85;;;;;;;-4.69;70.38;97782.09;5050274;28;20166;-36
2023/02/19 04:09:37;;;;;;;14.27;6.50;;;;;;;-4.62;69.90;97781.25;5082860;28;20546;-35
2023/02/19 04:12:08;;;;;;;14.50;6.50;;;;;;;-4.48;69.83;97783.69;5065230;28;20142;-36
2023/02/19 04:14:38;;;;;;;13.57;6.05;;;;;;;-4.41;70.04;97782.81;5065940;28;20040;-34
2023/02/19 04:17:09;;;;;;;12.80;6.40;;;;;;;-4.41;70.08;97785.34;5067227;28;20070;-35
2023/02/19 04:19:36;;;;;;;14.20;5.80;;;;;;;-4.57;69.92;97782.06;5081755;28;20161;-35
2023/02/19 04:22:04;;;;;;;12.02;5.88;;;;;;;-4.66;69.96;97788.88;5082108;28;20044;-35
2023/02/19 04:24:37;;;;;;;13.90;5.63;;;;;;;-4.77;69.63;97769.50;5073943;28;20105;-38
2023/02/19 04:27:04;;;;;;;15.23;6.05;;;;;;;-4.82;69.47;97773.75;5065491;28;20051;-36
2023/02/19 04:29:30;;;;;;;14.23;6.30;;;;;;;-4.75;70.13;97774.53;5078425;28;20071;-36
2023/02/19 04:31:56;;;;;;;13.40;6.40;;;;;;;-4.66;70.01;97769.44;5068626;28;20040;-36
2023/02/19 04:34:22;;;;;;;19.45;6.63;;;;;;;-4.86;69.57;97745.84;5074618;28;20097;-36
2023/02/19 04:36:48;;;;;;;12.52;6.38;;;;;;;-4.76;69.83;97762.69;5081724;28;20119;-35
2023/02/19 04:39:14;;;;;;;14.32;6.68;;;;;;;-4.76;69.72;97768.63;5068117;28;20139;-36
2023/02/19 04:41:40;;;;;;;15.43;6.47;;;;;;;-4.65;69.84;97767.72;5066506;28;20130;-35
2023/02/19 04:44:06;;;;;;;12.43;5.35;;;;;;;-4.85;69.78;97738.25;5086288;28;20590;-37
2023/02/19 04:46:32;;;;;;;11.13;4.95;;;;;;;-4.77;68.86;97772.03;5073463;28;20102;-35
2023/02/19 04:48:57;;;;;;;15.63;6.70;;;;;;;-4.84;69.84;97767.81;5105887;28;20083;-34
2023/02/19 04:51:23;;;;;;;14.80;7.05;;;;;;;-4.79;69.45;97765.25;5074730;28;20040;-37
2023/02/19 04:53:49;;;;;;;15.20;6.85;;;;;;;-4.86;69.70;97739.09;5083079;28;20067;-35
2023/02/19 04:56:16;;;;;;;15.57;7.30;;;;;;;-4.53;69.64;97760.06;5074704;28;20515;-35
2023/02/19 04:58:42;;;;;;;16.05;7.43;;;;;;;-4.55;69.62;97746.56;5080519;28;20127;-34
2023/02/19 05:01:09;;;;;;;15.43;7.13;;;;;;;-4.41;69.56;97757.47;5077724;28;20434;-35
2023/02/19 05:03:35;;;;;;;17.55;7.25;;;;;;;-4.44;69.52;97760.84;5082985;28;20075;-38
2023/02/19 05:06:05;;;;;;;13.68;5.88;;;;;;;-4.42;69.64;97756.63;5082184;28;20064;-36
2023/02/19 05:08:31;;;;;;;14.65;6.88;;;;;;;-4.41;69.38;97757.47;5077547;28;20427;-35
2023/02/19 05:10:58;;;;;;;15.90;6.45;;;;;;;-4.36;69.71;97755.72;5082816;28;20044;-35
2023/02/19 05:13:24;;;;;;;16.70;6.90;;;;;;;-4.31;69.76;97748.94;5075096;28;20040;-35
2023/02/19 05:15:58;;;;;;;13.95;5.45;;;;;;;-4.38;68.74;97745.59;5083973;28;20506;-36
2023/02/19 05:18:25;;;;;;;14.63;6.70;;;;;;;-4.51;68.90;97754.13;5060791;28;20043;-35
2023/02/19 05:20:51;;;;;;;15.93;6.97;;;;;;;-4.54;69.45;97743.16;5063891;28;20047;-35
2023/02/19 05:23:18;;;;;;;11.68;5.18;;;;;;;-4.59;69.53;97742.34;5081942;28;20048;-36
2023/02/19 05:25:43;;;;;;;13.52;6.25;;;;;;;-4.83;69.83;97718.84;5084235;28;20052;-36
2023/02/19 05:28:15;;;;;;;13.30;6.03;;;;;;;-4.61;70.31;97744.06;5081665;28;20373;-35
2023/02/19 05:30:43;;;;;;;15.60;6.35;;;;;;;-4.53;70.11;97740.63;5079989;28;20071;-35
2023/02/19 05:33:09;;;;;;;15.27;6.97;;;;;;;-4.84;69.65;97666.47;5087036;28;20048;-35
2023/02/19 05:35:42;;;;;;;14.82;6.85;;;;;;;-4.46;69.45;97739.75;5085082;28;20043;-37
2023/02/19 05:38:09;;;;;;;14.98;7.18;;;;;;;-4.40;70.35;97732.09;5083232;28;20059;-35
2023/02/19 05:40:36;;;;;;;13.13;6.10;;;;;;;-4.74;69.51;97662.16;5080775;28;20795;-36
2023/02/19 05:43:02;;;;;;;13.80;5.90;;;;;;;-4.38;69.70;97730.38;5085102;28;20052;-35
2023/02/19 05:45:28;;;;;;;11.70;5.88;;;;;;;-4.52;69.37;97728.78;5085057;28;20738;-36
2023/02/19 05:47:54;;;;;;;15.63;6.03;;;;;;;-4.41;70.11;97724.50;5082130;28;20071;-36
2023/02/19 05:50:19;;;;;;;13.10;6.00;;;;;;;-4.37;69.30;97724.47;5068540;28;20064;-36
2023/02/19 05:52:45;;;;;;;13.05;5.60;;;;;;;-4.26;69.51;97721.84;5081514;28;20064;-38
2023/02/19 05:55:11;;;;;;;12.30;5.40;;;;;;;-4.48;68.78;97700.03;5067646;28;20123;-35
2023/02/19 05:57:43;;;;;;;10.40;4.43;;;;;;;-4.32;69.33;97732.03;5077305;28;20043;-36
2023/02/19 06:00:11;;;;;;;14.60;5.50;;;;;;;-4.72;69.28;97665.56;5043768;28;20538;-36
2023/02/19 06:02:40;;;;;;;14.40;6.22;;;;;;;-4.30;69.25;97717.66;5062988;28;20071;-36
2023/02/19 06:05:06;;;;;;;11.48;5.68;;;;;;;-4.22;68.77;97715.88;5076354;28;20133;-36
2023/02/19 06:07:33;;;;;;;11.70;5.00;;;;;;;-4.09;69.13;97727.63;5102171;28;20392;-37
2023/02/19 06:09:58;;;;;;;9.50;4.95;;;;;;;-4.09;68.97;97725.09;5091950;28;20052;-36
2023/02/19 06:12:24;;;;;;;12.30;5.50;;;;;;;-4.25;68.51;97727.75;5099210;28;20035;-33
2023/02/19 06:14:51;;;;;;;12.68;5.72;;;;;;;-4.26;68.41;97721.84;5062237;28;20048;-35
2023/02/19 06:17:17;;;;;;;10.45;4.90;;;;;;;-4.05;68.55;97725.91;5129555;27;20514;-36
2023/02/19 06:19:42;;;;;;;7.45;3.67;;;;;;;-4.11;68.29;97698.06;5068344;28;20124;-35
2023/02/19 06:22:09;;;;;;;13.43;5.50;;;;;;;-4.11;68.25;97720.88;5082430;28;20036;-36
2023/02/19 06:24:36;;;;;;;14.55;6.18;;;;;;;-4.05;67.81;97725.91;5051391;28;20088;-35
2023/02/19 06:27:06;;;;;;;11.18;5.10;;;;;;;-3.94;67.98;97719.91;5078068;28;20047;-35
2023/02/19 06:29:32;;;;;;;13.00;4.80;;;;;;;-3.85;67.65;97736.72;5066192;28;20067;-36
2023/02/19 06:31:59;;;;;;;9.48;4.63;;;;;;;-4.16;66.96;97735.28;5052251;28;20079;-38
2023/02/19 06:34:25;;;;;;;10.90;4.95;;;;;;;-4.23;67.36;97726.88;5081710;28;20050;-36
2023/02/19 06:36:51;;;;;;;13.02;5.25;;;;;;;-4.42;68.18;97716.03;5083148;28;20388;-34
2023/02/19 06:39:17;;;;;;;11.52;5.28;;;;;;;-4.61;68.20;97658.72;5069197;28;20044;-35
2023/02/19 06:41:43;;;;;;;11.55;5.38;;;;;;;-4.06;68.32;97709.84;5071539;28;20051;-35
2023/02/19 06:44:09;;;;;;;11.55;5.30;;;;;;;-3.96;67.84;97708.06;5073962;28;20040;-35
2023/02/19 06:46:35;;;;;;;9.77;4.22;;;;;;;-3.98;67.52;97690.31;5097337;28;20060;-36
2023/02/19 06:49:03;;;;;;;10.90;4.75;;;;;;;-3.93;67.59;97706.38;5082057;28;20515;-36
2023/02/19 06:51:31;;;;;;;15.13;5.15;;;;;;;-3.94;67.36;97697.06;5085733;28;20044;-35
2023/02/19 06:54:01;;;;;;;11.85;5.13;;;;;;;-3.99;67.00;97696.25;5085556;28;20128;-35
2023/02/19 06:56:33;;;;;;;9.82;4.57;;;;;;;-3.92;66.81;97702.09;5088949;28;20067;-36
2023/02/19 06:59:01;;;;;;;12.68;5.55;;;;;;;-3.77;66.97;97704.53;5085192;28;20688;-36
2023/02/19 07:01:28;;;;;;;10.50;4.30;;;;;;;-3.91;67.01;97697.03;5067993;28;20056;-36
2023/02/19 07:03:55;;;;;;;13.25;4.80;;;;;;;-3.94;67.20;97693.69;5083599;28;20052;-34
2023/02/19 07:06:22;;;;;;;9.82;3.47;;;;;;;-3.88;66.79;97675.88;5063728;28;20507;-36
2023/02/19 07:08:48;;;;;;;9.27;4.30;;;;;;;-3.84;66.42;97680.03;5090040;28;20036;-36
2023/02/19 07:11:14;;;;;;;11.65;5.28;;;;;;;-4.02;66.44;97668.38;5072558;28;20080;-37
2023/02/19 07:13:40;;;;;;;10.00;4.95;;;;;;;-4.01;66.71;97642.13;5088974;28;20036;-36
2023/02/19 07:16:08;;;;;;;12.60;5.65;;;;;;;-3.77;66.74;97675.75;5082593;28;20088;-36
2023/02/19 07:18:34;;;;;;;9.48;4.70;;;;;;;-3.72;66.40;97676.56;5071867;28;20068;-38
2023/02/19 07:21:04;;;;;;;10.50;4.68;;;;;;;-3.78;66.89;97676.59;5089451;28;20125;-39
2023/02/19 07:23:30;;;;;;;13.27;5.55;;;;;;;-4.13;67.54;97651.53;5088531;28;20043;-36
2023/02/19 07:25:56;;;;;;;8.23;4.57;;;;;;;-3.89;67.86;97680.09;5075524;28;20041;-36
2023/02/19 07:28:22;;;;;;;11.43;4.45;;;;;;;-4.05;67.69;97620.19;5081258;28;20214;-35
2023/02/19 07:30:48;;;;;;;10.10;5.20;;;;;;;-3.70;67.92;97669.75;5081865;28;20185;-35
2023/02/19 07:33:14;;;;;;;10.13;4.50;;;;;;;-3.76;67.67;97662.19;5078069;28;20101;-36
2023/02/19 07:35:46;;;;;;;8.95;3.55;;;;;;;-3.94;67.79;97669.16;5088099;28;20494;-36
2023/02/19 07:38:18;;;;;;;9.73;4.55;;;;;;;-4.12;66.99;97658.31;5052438;28;20385;-35
2023/02/19 07:40:54;;;;;;;9.75;4.65;;;;;;;-4.14;67.92;97662.56;5081771;28;20047;-36
2023/02/19 07:43:21;;;;;;;12.05;5.72;;;;;;;-3.99;67.77;97650.59;5081520;28;20040;-35
2023/02/19 07:45:47;;;;;;;9.00;3.88;;;;;;;-4.18;67.50;97651.59;5081507;28;20138;-35
2023/02/19 07:48:13;;;;;;;10.63;4.53;;;;;;;-4.23;67.08;97652.47;5080954;28;20071;-37
2023/02/19 07:50:39;;;;;;;9.10;4.30;;;;;;;-4.09;67.31;97653.22;5080617;28;20070;-35
2023/02/19 07:53:05;;;;;;;6.95;3.53;;;;;;;-4.02;67.80;97654.81;5068064;28;20523;-36
2023/02/19 07:55:31;;;;;;;10.88;5.53;;;;;;;-4.19;67.62;97638.94;5072982;28;20040;-34
2023/02/19 07:57:58;;;;;;;10.63;4.53;;;;;;;-4.36;67.91;97603.59;5081664;28;20069;-34
2023/02/19 08:00:25;;;;;;;9.95;5.22;;;;;;;-4.01;68.44;97641.28;5089278;28;20043;-34
2023/02/19 08:03:01;;;;;;;11.82;4.20;;;;;;;-3.98;68.17;97644.63;5089221;28;20039;-35
2023/02/19 08:05:32;;;;;;;11.15;4.63;;;;;;;-4.01;70.13;97638.75;5080639;28;20072;-34
2023/02/19 08:07:59;;;;;;;13.23;5.97;;;;;;;-4.31;71.31;97614.53;5077572;28;20036;-34
2023/02/19 08:13:24;;;;;;;7.07;3.45;;;;;;;-4.43;70.76;97607.00;5083688;28;20157;-35
2023/02/19 08:16:10;;;;;;;11.25;5.50;;;;;;;-4.25;70.29;97637.31;5079186;28;20063;-34
2023/02/19 08:18:36;;;;;;;14.73;5.85;;;;;;;-3.99;70.40;97642.97;5105562;28;20505;-35
2023/02/19 08:21:02;;;;;;;9.25;4.78;;;;;;;-3.82;69.59;97639.44;5108054;28;20058;-34
2023/02/19 08:23:28;;;;;;;13.57;5.53;;;;;;;-3.85;68.87;97630.97;5085289;28;20048;-35
2023/02/19 08:25:59;;;;;;;10.05;4.78;;;;;;;-3.78;68.72;97621.63;5063899;28;20522;-34
2023/02/19 08:28:25;;;;;;;12.50;5.45;;;;;;;-3.75;67.92;97631.72;5083736;28;20036;-35
2023/02/19 08:30:51;;;;;;;10.77;5.30;;;;;;;-3.70;67.97;97634.19;5087442;28;20127;-36
2023/02/19 08:33:19;;;;;;;11.20;5.28;;;;;;;-3.72;68.07;97635.94;5076176;28;20148;-35
2023/02/19 08:35:46;;;;;;;12.30;5.10;;;;;;;-3.63;67.67;97628.22;5075581;28;20040;-35
2023/02/19 08:38:15;;;;;;;10.30;5.10;;;;;;;-3.54;67.94;97636.56;5089218;28;20480;-35
2023/02/19 08:40:41;;;;;;;10.93;5.05;;;;;;;-3.65;67.53;97615.53;5073863;28;20123;-35
2023/02/19 08:43:09;;;;;;;18.77;7.03;;;;;;;-3.39;67.47;97616.91;5086284;28;20518;-35
2023/02/19 08:45:40;;;;;;;10.60;5.38;;;;;;;-3.13;67.22;97627.56;5075512;28;20507;-35
2023/02/19 08:48:06;;;;;;;10.80;4.68;;;;;;;-3.29;66.96;97619.31;5058063;28;20045;-35
2023/02/19 08:50:33;;;;;;;9.55;5.20;;;;;;;-3.14;66.74;97625.94;5084971;28;20126;-35
2023/02/19 08:53:00;;;;;;;15.15;5.85;;;;;;;-3.01;66.12;97623.19;5070723;28;20028;-36
2023/02/19 08:55:26;;;;;;;11.90;5.15;;;;;;;-3.08;65.72;97611.41;5081838;28;20048;-36
2023/02/19 08:57:51;;;;;;;10.65;4.22;;;;;;;-2.98;65.76;97618.94;5082734;28;20465;-35
2023/02/19 09:00:17;;;;;;;13.75;5.68;;;;;;;-3.01;65.73;97607.94;5087020;28;20040;-35
2023/02/19 09:02:43;;;;;;;9.50;5.07;;;;;;;-2.87;65.85;97612.81;5086570;28;20044;-36
2023/02/19 09:05:10;;;;;;;15.60;6.45;;;;;;;-2.91;65.59;97612.88;5085811;28;20058;-34
2023/02/19 09:07:36;;;;;;;14.45;5.10;;;;;;;-2.97;65.26;97611.25;5087810;28;20112;-35
2023/02/19 09:10:03;;;;;;;9.95;5.15;;;;;;;-3.11;65.33;97611.47;5087317;28;20526;-34
2023/02/19 09:12:29;;;;;;;10.82;4.78;;;;;;;-3.23;65.70;97621.78;5087010;28;20044;-37
2023/02/19 09:14:55;;;;;;;13.65;5.68;;;;;;;-3.79;69.12;97573.41;5087829;28;20506;-36
2023/02/19 09:17:21;;;;;;;7.72;4.15;;;;;;;-3.74;70.21;97597.88;5081475;28;20044;-36
2023/02/19 09:19:47;;;;;;;11.68;4.97;;;;;;;-3.70;71.75;97599.50;5082498;28;20043;-36
2023/02/19 09:22:13;;;;;;;15.77;5.35;;;;;;;-3.63;70.67;97598.59;5084307;28;20477;-36
2023/02/19 09:24:39;;;;;;;12.75;5.88;;;;;;;-3.60;70.33;97605.31;5084664;28;20032;-35
2023/02/19 09:27:04;;;;;;;8.60;4.28;;;;;;;-3.45;69.91;97587.34;5090163;28;20122;-35
2023/02/19 09:29:30;;;;;;;11.65;5.47;;;;;;;-3.51;69.51;97598.41;5097969;28;20045;-36
2023/02/19 09:31:58;;;;;;;10.95;5.57;;;;;;;-3.58;68.68;97586.69;5089984;28;20469;-37
2023/02/19 09:34:25;;;;;;;14.85;5.82;;;;;;;-3.69;66.81;97582.56;5105234;27;20036;-41
2023/02/19 09:36:51;;;;;;;10.98;5.15;;;;;;;-3.63;67.15;97601.13;5076709;28;20042;-36
2023/02/19 09:39:17;;;;;;;12.85;5.40;;;;;;;-3.59;66.51;97574.00;5081016;28;20066;-35
2023/02/19 09:41:45;;;;;;;13.77;5.57;;;;;;;-3.52;66.36;97575.59;5065434;28;20040;-35
2023/02/19 09:44:22;;;;;;;15.73;6.28;;;;;;;-3.67;66.57;97575.78;5079672;28;20075;-36
2023/02/19 09:46:51;;;;;;;12.27;5.65;;;;;;;-3.72;66.23;97573.31;5085327;28;20102;-35
2023/02/19 09:49:36;;;;;;;13.90;5.22;;;;;;;-3.73;66.75;97578.41;5081728;28;20055;-36
2023/02/19 09:52:26;;;;;;;7.78;3.72;;;;;;;-3.71;66.70;97579.22;5070622;28;20062;-35
2023/02/19 09:54:56;;;;;;;9.15;4.30;;;;;;;-3.83;66.09;97575.13;5085453;28;20180;-36
2023/02/19 09:57:24;;;;;;;14.27;5.97;;;;;;;-3.78;67.23;97581.00;5086770;28;20024;-36
2023/02/19 09:59:53;;;;;;;15.15;5.70;;;;;;;-3.78;67.22;97565.78;5090236;28;20050;-35
2023/02/19 10:02:22;;;;;;;14.68;6.00;;;;;;;-3.55;66.86;97563.78;5070951;28;20097;-35
2023/02/19 10:04:50;;;;;;;12.43;5.28;;;;;;;-3.42;66.60;97562.78;5086316;28;20500;-35
2023/02/19 10:07:18;;;;;;;7.75;4.03;;;;;;;-3.38;66.27;97539.84;5089230;28;20511;-37
2023/02/19 10:09:47;;;;;;;17.40;5.70;;;;;;;-3.51;66.57;97532.41;5072424;28;20824;-37
2023/02/19 10:12:17;;;;;;;13.40;6.05;;;;;;;-3.23;65.92;97557.44;5083268;28;20511;-37
2023/02/19 10:14:46;;;;;;;13.38;6.13;;;;;;;-3.20;66.02;97557.41;5083391;28;20052;-37
2023/02/19 10:17:25;;;;;;;12.05;5.60;;;;;;;-3.00;65.85;97552.88;5068104;28;20041;-37
2023/02/19 10:19:56;;;;;;;15.40;6.53;;;;;;;-3.18;65.31;97500.59;5081575;28;20071;-36
2023/02/19 10:22:22;;;;;;;11.43;4.80;;;;;;;-2.82;65.54;97556.81;5069383;28;20067;-36
2023/02/19 10:24:53;;;;;;;10.73;5.50;;;;;;;-2.85;65.43;97546.69;5117153;27;20089;-35
2023/02/19 10:27:19;;;;;;;17.38;7.13;;;;;;;-2.89;65.41;97568.81;5065719;28;20036;-34
2023/02/19 10:29:47;;;;;;;6.53;3.47;;;;;;;-3.16;65.17;97587.81;5088343;28;20040;-37
2023/02/19 10:32:22;;;;;;;14.00;6.25;;;;;;;-3.45;65.58;97565.34;5064989;28;20040;-34
2023/02/19 10:35:07;;;;;;;14.48;6.15;;;;;;;-3.50;65.98;97562.00;5095900;28;20048;-36
2023/02/19 10:37:34;;;;;;;17.30;6.20;;;;;;;-3.46;65.44;97550.13;5081699;28;20522;-37
2023/02/19 10:40:00;;;;;;;12.80;5.78;;;;;;;-3.18;65.23;97564.13;5075158;28;20047;-36
2023/02/19 10:42:26;;;;;;;11.45;4.45;;;;;;;-3.29;65.18;97575.28;5074177;28;20616;-35
2023/02/19 10:45:00;;;;;;;11.93;6.07;;;;;;;-3.49;65.21;97523.06;5060564;28;20143;-34
2023/02/19 10:47:29;;;;;;;13.93;5.45;;;;;;;-2.96;65.00;97572.28;5098734;28;20075;-34
2023/02/19 10:49:57;;;;;;;13.88;6.22;;;;;;;-2.79;64.87;97561.88;5085975;28;20142;-36
2023/02/19 10:52:28;;;;;;;13.75;5.85;;;;;;;-2.74;64.03;97560.09;5081195;28;20048;-35
2023/02/19 10:55:12;;;;;;;8.15;3.70;;;;;;;-2.62;63.83;97565.00;5097718;28;20074;-33
2023/02/19 10:57:39;;;;;;;13.25;5.93;;;;;;;-2.92;63.59;97555.28;5069444;28;20063;-35
2023/02/19 11:00:14;;;;;;;14.98;5.78;;;;;;;-2.81;63.77;97559.34;5089657;28;20118;-35
2023/02/19 11:02:41;;;;;;;9.85;4.93;;;;;;;-2.83;63.22;97553.47;5081284;28;20044;-35
2023/02/19 11:05:16;;;;;;;12.73;5.60;;;;;;;-2.87;63.40;97550.97;5075403;28;20044;-35
2023/02/19 11:07:48;;;;;;;18.52;6.82;;;;;;;-2.64;63.46;97546.38;5090758;28;20040;-38
2023/02/19 11:10:43;;;;;;;10.05;4.80;;;;;;;-2.38;62.76;97568.81;5069080;28;20524;-36
2023/02/19 11:13:15;;;;;;;12.32;5.63;;;;;;;-2.64;63.15;97543.81;5080382;28;20052;-35
2023/02/19 11:15:42;;;;;;;11.27;5.47;;;;;;;-2.53;63.24;97533.47;5071897;28;20044;-35
2023/02/19 11:18:18;;;;;;;11.85;6.15;;;;;;;-2.60;62.58;97541.19;5102903;28;20041;-37
2023/02/19 11:21:02;;;;;;;11.77;5.90;;;;;;;-2.65;63.35;97545.53;5096690;28;20052;-37
2023/02/19 11:23:35;;;;;;;13.70;6.55;;;;;;;-2.68;62.98;97496.44;5075698;28;20503;-42
2023/02/19 11:26:05;;;;;;;11.02;5.20;;;;;;;-2.26;62.09;97550.81;5078827;28;20423;-36
2023/02/19 11:28:36;;;;;;;13.10;5.63;;;;;;;-1.97;62.14;97532.44;5069162;28;20067;-36
2023/02/19 11:31:17;;;;;;;8.00;4.05;;;;;;;-1.86;61.07;97555.97;5065613;28;20534;-38
2023/02/19 11:34:02;;;;;;;10.57;5.28;;;;;;;-2.07;60.89;97525.84;5068713;28;20584;-38
2023/02/19 11:36:34;;;;;;;12.90;5.85;;;;;;;-2.08;60.99;97529.25;5072284;28;20139;-36
2023/02/19 11:39:27;;;;;;;9.80;4.57;;;;;;;-2.24;61.52;97531.25;5070591;28;20468;-36
2023/02/19 11:42:27;;;;;;;13.18;6.32;;;;;;;-2.63;61.74;97531.09;5076551;28;20055;-36
2023/02/19 11:45:19;;;;;;;8.98;4.95;;;;;;;-3.08;61.86;97493.69;5066743;28;20036;-52
2023/02/19 11:48:13;;;;;;;8.27;4.80;;;;;;;-3.14;61.97;97534.44;5085163;28;20063;-34
2023/02/19 11:50:41;;;;;;;12.13;4.65;;;;;;;-3.30;62.31;97553.31;5069309;28;20078;-34
2023/02/19 11:53:26;;;;;;;14.40;6.03;;;;;;;-3.35;62.31;97532.22;5075148;28;20054;-35
2023/02/19 11:56:07;;;;;;;12.50;5.32;;;;;;;-3.28;62.46;97527.00;5089500;28;20032;-39
2023/02/19 11:58:54;;;;;;;12.07;5.72;;;;;;;-3.15;62.45;97531.06;5084392;28;20040;-35
2023/02/19 12:01:38;;;;;;;10.70;5.10;;;;;;;-3.40;61.76;97532.25;5082058;28;20540;-34
2023/02/19 12:04:18;;;;;;;13.82;5.63;;;;;;;-3.49;62.40;97538.31;5069259;28;20043;-36